ESNQESNX

Guest
Details From ESNQ - Kiruna
To ESNX - Arvidsjaur
Flight Number -
Tags generated
Created
Modified
Stats Distance 136 nm / 252 km
Max Altitude 10,200 ft / 3,109 m
Waypoints 4
Social Downloads 0
Likes 0
Share VATSIM

Download

Looking for another format? Having issues loading an existing format? Contact us
Advertisement - Login to hide

Notes

Basic altitude profile: - Ascent Rate: 2500ft/min - Ascent Speed: 250kts - Cruise Altitude: 35000ft - Cruise Speed: 420kts - Descent Rate: 1500ft/min - Descent Speed: 250kts Options: - Use NATs: no - Use PACOTS: no - Use low airways: yes - Use high airways: no

Route

ESNQ KRA T317 VAGAS ESNX

ID Type Via Altitude Latitude Longitude Leg Dist Tot Dist Heading (true) Name
O ESNQ APT - 0 ft / 0 m 67.82198˚ 20.33676˚ - 0 nm - Kiruna
KRA VOR - 0 ft / 0 m 67.81922˚ 20.33750˚ 0 nm 0 nm 174° / 174° KIRUNA VOR-DME
VAGAS FIX T317 (AWY-LO) 10,200 ft / 3,109 m 67.34922˚ 20.15214˚ 28 nm 28 nm 189° / 188° -
O ESNX APT - 0 ft / 0 m 65.59162˚ 19.27747˚ 107 nm 136 nm 192° / 191° Arvidsjaur

Altitude Profile

Advertisement - Login to hide

ESNQ

Details ICAO ESNQ (KRN)
Name Kiruna
Region Sweden
Timezone Europe/Stockholm (UTC+1.0)
Stats Elevation 1,508 ft / 460 m (AMSL)
Location 67.821984° 20.336762°
Runways 1
Magnetic Variation 9.074° E

METAR

ESNQ 161850Z 20003KT CAVOK M18/M20 Q0998

Decode

TAF

Not found

Departure Runways

ID Width Length Bearing (true) Bearing (mag) Surface Threshold Offset Overrun Length
03 148 ft / 45 m 8,183 ft / 2,494 m 33.63° 24.56° Asphalt 0 ft / 0 m 200 ft / 61 m
21 148 ft / 45 m 8,183 ft / 2,494 m 213.66° 204.59° Asphalt 0 ft / 0 m 200 ft / 61 m

ESNX

Details ICAO ESNX (AJR)
Name Arvidsjaur
Region Sweden
Timezone Europe/Stockholm (UTC+1.0)
Stats Elevation 1,245 ft / 379 m (AMSL)
Location 65.591622° 19.277466°
Runways 1
Magnetic Variation 7.933° E

METAR

ESNX 161850Z AUTO 00000KT 0250 R30/0750N FZFG ///////// M13/M14 Q1001

Decode

TAF

Not found

Destination Runways

ID Width Length Bearing (true) Bearing (mag) Surface Threshold Offset Overrun Length
12 148 ft / 45 m 8,175 ft / 2,492 m 128.22° 120.29° Asphalt 0 ft / 0 m 0 ft / 0 m
30 148 ft / 45 m 8,175 ft / 2,492 m 308.26° 300.33° Asphalt 0 ft / 0 m 0 ft / 0 m

Approach Navaids

Runway Type Ident Frequency Range Bearing (true) Bearing (mag) Slope Elevation
12 Localiser ARV 109.35 MHz 18 nm / 33 km 128.28° 120.34° - 1,245 ft / 379 m (AMSL)
12 Glidescope ARV 109.35 MHz 10 nm / 19 km 128.24° 120.31° 3.00° 1,245 ft / 379 m (AMSL)
12 DME ARV 109.35 MHz 18 nm / 33 km - - - 1,276 ft / 389 m (AMSL)
30 Localiser NX 111.50 MHz 18 nm / 33 km 308.22° 300.29° - 1,245 ft / 379 m (AMSL)
30 Glidescope NX 111.50 MHz 10 nm / 19 km 308.24° 300.31° 3.00° 1,245 ft / 379 m (AMSL)
30 DME NX 111.50 MHz 18 nm / 33 km - - - 1,259 ft / 384 m (AMSL)